Time;durP1;ratioP1;P1;durP2;ratioP2;P2;SDS_P1;SDS_P2;PMS_P1;PMS_P2;Temp;Humidity;BMP_temperature;BMP_pressure;BME280_temperature;BME280_humidity;BME280_pressure;Samples;Min_cycle;Max_cycle;Signal;HPM_P1;HPM_P2
2022/08/04 00:02:24;;;;;;;9.80;4.50;;;;;;;25.53;57.05;101145.97;4995325;28;20018;-68
2022/08/04 00:04:58;;;;;;;10.77;4.32;;;;;;;25.58;57.08;101139.38;4995278;28;20026;-68
2022/08/04 00:08:00;;;;;;;7.70;4.20;;;;;;;25.53;56.97;101133.31;4995258;28;20030;-68
2022/08/04 00:10:27;;;;;;;;;;;;;;;25.69;55.37;101131.59;4995618;28;20022;-69
2022/08/04 00:12:54;;;;;;;10.35;4.45;;;;;;;25.22;58.53;101131.13;4995206;28;19976;-69
2022/08/04 00:15:20;;;;;;;13.30;4.90;;;;;;;25.15;58.10;101129.66;4995210;28;20026;-69
2022/08/04 00:17:53;;;;;;;12.50;4.82;;;;;;;24.94;58.95;101140.44;4995134;28;20034;-69
2022/08/04 00:20:20;;;;;;;11.68;4.70;;;;;;;24.96;58.99;101137.66;4995436;28;20029;-69
2022/08/04 00:22:47;;;;;;;8.88;4.32;;;;;;;24.93;59.11;101129.72;4995009;28;20041;-69
2022/08/04 00:25:13;;;;;;;11.02;4.50;;;;;;;24.91;58.94;101131.59;4994707;28;20050;-69
2022/08/04 00:27:39;;;;;;;9.25;4.20;;;;;;;24.89;59.15;101130.78;4995079;28;20027;-69
2022/08/04 00:30:06;;;;;;;10.77;4.30;;;;;;;24.94;58.97;101131.47;4995122;28;20060;-69
2022/08/04 00:32:31;;;;;;;11.35;4.70;;;;;;;24.74;59.88;101118.81;4994727;28;20391;-69
2022/08/04 00:34:57;;;;;;;11.88;4.32;;;;;;;24.73;59.85;101125.16;4977187;28;20130;-69
2022/08/04 00:37:24;;;;;;;15.85;4.88;;;;;;;24.68;59.88;101122.66;4977270;28;20503;-69
2022/08/04 00:39:54;;;;;;;9.50;4.75;;;;;;;24.56;60.30;101120.50;4994536;28;20074;-69
2022/08/04 00:42:33;;;;;;;12.82;4.80;;;;;;;24.55;59.64;101113.34;4994632;28;20019;-69
2022/08/04 00:45:26;;;;;;;9.32;4.50;;;;;;;24.52;59.58;101110.75;4994800;28;20046;-69
2022/08/04 00:48:21;;;;;;;8.05;4.72;;;;;;;24.43;60.25;101108.47;4994463;28;20038;-69
2022/08/04 00:50:49;;;;;;;9.65;4.50;;;;;;;24.41;60.48;101105.84;4969844;28;20053;-69
2022/08/04 00:53:23;;;;;;;9.07;4.85;;;;;;;24.29;60.69;101108.16;4994466;28;20034;-69
2022/08/04 00:55:49;;;;;;;14.75;4.95;;;;;;;24.34;60.36;101103.41;4994447;28;20036;-68
2022/08/04 00:58:17;;;;;;;9.02;4.60;;;;;;;24.46;60.29;101114.63;4994366;28;20026;-68
2022/08/04 01:00:52;;;;;;;11.02;4.50;;;;;;;24.55;59.64;101099.84;4994783;28;20488;-69
2022/08/04 01:03:51;;;;;;;16.83;5.10;;;;;;;24.56;59.09;101100.72;4994094;28;20026;-69
2022/08/04 01:06:40;;;;;;;13.88;4.88;;;;;;;24.58;59.15;101104.22;4993632;28;20038;-69
2022/08/04 01:09:21;;;;;;;12.00;5.05;;;;;;;24.61;58.75;101099.56;4994216;28;20051;-69
2022/08/04 01:12:04;;;;;;;10.05;4.63;;;;;;;24.64;58.92;101094.03;4994181;28;20044;-69
2022/08/04 01:14:54;;;;;;;12.98;4.85;;;;;;;24.61;58.65;101095.97;4994111;28;20041;-69
2022/08/04 01:17:23;;;;;;;10.10;4.28;;;;;;;24.52;59.49;101093.69;4993933;28;20365;-68
2022/08/04 01:20:00;;;;;;;11.25;4.50;;;;;;;24.43;59.46;101092.25;4994044;28;20481;-69
2022/08/04 01:22:34;;;;;;;9.43;4.63;;;;;;;24.56;58.47;101090.78;4994297;28;20050;-68
2022/08/04 01:25:08;;;;;;;10.90;4.32;;;;;;;24.56;58.82;101090.78;4993739;28;20122;-69
2022/08/04 01:27:55;;;;;;;10.25;4.60;;;;;;;24.53;58.41;101087.31;4993789;28;20030;-69
2022/08/04 01:30:21;;;;;;;18.52;4.57;;;;;;;24.36;59.26;101091.59;4994031;28;20033;-69
2022/08/04 01:32:56;;;;;;;8.45;4.40;;;;;;;24.31;59.39;101085.50;4992739;28;20027;-69
2022/08/04 01:35:32;;;;;;;10.52;4.68;;;;;;;24.24;59.17;101079.50;4993762;28;20380;-69
2022/08/04 01:38:06;;;;;;;10.43;4.65;;;;;;;24.28;58.95;101077.53;4993832;28;20057;-68
2022/08/04 01:40:33;;;;;;;11.90;4.25;;;;;;;24.32;58.87;101068.34;4976333;28;20030;-69
2022/08/04 01:43:02;;;;;;;11.18;4.88;;;;;;;24.30;58.59;101072.09;4993762;28;20109;-68
2022/08/04 01:45:28;;;;;;;9.77;4.40;;;;;;;24.39;58.71;101074.41;4993766;28;20064;-68
2022/08/04 01:47:55;;;;;;;9.82;3.75;;;;;;;24.42;58.04;101072.47;4993632;28;20034;-68
2022/08/04 01:50:22;;;;;;;9.23;4.57;;;;;;;24.35;58.44;101068.22;4993728;28;20034;-69
2022/08/04 01:52:48;;;;;;;15.18;4.53;;;;;;;24.38;58.18;101064.56;4993625;28;20384;-69
2022/08/04 01:55:16;;;;;;;11.93;4.50;;;;;;;24.40;57.95;101062.66;4993625;28;20027;-69
2022/08/04 01:57:47;;;;;;;10.73;4.53;;;;;;;24.41;57.85;101069.81;4993702;28;20061;-69
2022/08/04 02:00:19;;;;;;;12.60;4.55;;;;;;;24.42;57.47;101071.59;4993625;28;20034;-68
2022/08/04 02:02:46;;;;;;;11.93;4.75;;;;;;;24.29;57.48;101065.81;4993767;28;20033;-69
2022/08/04 02:05:15;;;;;;;13.00;4.40;;;;;;;24.36;57.44;101064.56;4993234;28;20019;-68
2022/08/04 02:07:52;;;;;;;10.75;4.93;;;;;;;24.36;57.37;101063.69;4993450;28;20034;-69
2022/08/04 02:10:27;;;;;;;12.50;4.22;;;;;;;24.47;57.23;101065.03;4993599;28;20038;-69
2022/08/04 02:13:16;;;;;;;18.50;4.70;;;;;;;24.51;56.49;101063.09;4993564;28;20023;-69
2022/08/04 02:16:00;;;;;;;14.40;4.93;;;;;;;24.37;56.50;101055.59;4993345;28;20041;-68
2022/08/04 02:18:28;;;;;;;16.45;4.80;;;;;;;24.38;57.13;101057.34;4995714;28;20062;-69
2022/08/04 02:20:57;;;;;;;11.18;4.28;;;;;;;24.35;56.90;101048.44;4997302;28;20369;-69
2022/08/04 02:23:45;;;;;;;11.77;4.20;;;;;;;24.43;56.65;101049.03;4997104;28;20113;-69
2022/08/04 02:26:19;;;;;;;14.68;4.80;;;;;;;24.34;56.64;101044.00;4996847;28;20022;-68
2022/08/04 02:28:53;;;;;;;12.27;4.45;;;;;;;24.41;56.68;101042.81;4997187;28;20030;-68
2022/08/04 02:31:29;;;;;;;12.60;4.60;;;;;;;24.34;56.46;101055.69;4997219;28;20110;-69
2022/08/04 02:34:05;;;;;;;14.32;4.10;;;;;;;24.26;56.79;101046.16;4996953;28;20041;-68
2022/08/04 02:36:35;;;;;;;12.05;4.35;;;;;;;24.24;56.99;101051.63;4996946;28;20068;-69
2022/08/04 02:39:04;;;;;;;10.93;4.20;;;;;;;24.24;56.53;101041.69;4979523;28;20038;-68
2022/08/04 02:41:30;;;;;;;14.65;4.10;;;;;;;24.21;56.67;101036.41;4997085;28;20044;-68
2022/08/04 02:44:02;;;;;;;12.60;4.20;;;;;;;24.09;57.11;101038.75;4996876;28;20476;-69
2022/08/04 02:46:28;;;;;;;13.50;4.15;;;;;;;24.17;56.95;101039.31;4996813;28;20030;-69
2022/08/04 02:48:55;;;;;;;10.52;4.47;;;;;;;24.01;57.30;101035.50;4979170;28;20027;-69
2022/08/04 02:51:32;;;;;;;10.43;3.80;;;;;;;24.01;57.11;101033.69;4996693;28;20038;-69
2022/08/04 02:54:01;;;;;;;13.77;3.90;;;;;;;24.06;57.66;101028.09;4996622;28;20030;-68
2022/08/04 02:56:30;;;;;;;13.18;3.97;;;;;;;23.94;57.81;101027.69;4979195;28;20046;-69
2022/08/04 02:58:59;;;;;;;14.57;4.10;;;;;;;23.95;57.64;101020.47;4996593;28;20026;-68
2022/08/04 03:01:25;;;;;;;15.98;4.35;;;;;;;23.82;58.28;101027.31;4996536;28;20037;-69
2022/08/04 03:04:18;;;;;;;11.50;4.65;;;;;;;23.87;57.55;101018.06;4996298;28;20394;-68
2022/08/04 03:06:46;;;;;;;10.75;3.95;;;;;;;23.78;58.12;101026.56;4996331;28;20033;-69
2022/08/04 03:09:49;;;;;;;8.77;3.70;;;;;;;23.74;58.15;101012.31;4978910;28;20032;-68
2022/08/04 03:12:32;;;;;;;12.25;3.80;;;;;;;23.77;58.14;101016.72;4996342;28;20392;-68
2022/08/04 03:15:25;;;;;;;9.63;3.97;;;;;;;23.62;58.52;101014.59;4996285;28;20101;-69
2022/08/04 03:18:13;;;;;;;13.60;4.15;;;;;;;23.68;57.85;101007.19;4996235;28;20027;-69
2022/08/04 03:20:38;;;;;;;11.65;3.78;;;;;;;23.74;58.26;101006.03;4996235;28;20026;-69
2022/08/04 03:23:16;;;;;;;11.38;4.07;;;;;;;23.79;57.66;101006.72;4996095;28;20503;-69
2022/08/04 03:26:10;;;;;;;11.85;3.92;;;;;;;23.81;58.08;101007.53;4996129;28;20053;-68
2022/08/04 03:29:08;;;;;;;10.77;3.47;;;;;;;23.73;57.87;101009.69;4995638;28;20086;-69
2022/08/04 03:31:55;;;;;;;12.40;4.15;;;;;;;23.63;57.95;101016.34;4996243;28;20118;-69
2022/08/04 03:34:45;;;;;;;13.80;3.85;;;;;;;23.56;58.52;101031.03;4995807;28;20053;-69
2022/08/04 03:37:18;;;;;;;16.90;3.60;;;;;;;23.35;59.50;101030.06;4995832;28;20045;-69
2022/08/04 03:40:10;;;;;;;14.18;3.97;;;;;;;23.37;58.97;101036.28;4978446;28;20023;-69
2022/08/04 03:42:45;;;;;;;11.13;4.15;;;;;;;23.26;59.42;101023.22;4996030;28;20433;-69
2022/08/04 03:45:22;;;;;;;13.85;4.20;;;;;;;23.15;59.88;101023.63;4995894;28;20035;-68
2022/08/04 03:48:16;;;;;;;11.15;3.53;;;;;;;23.17;59.50;101010.09;4978071;28;20399;-69
2022/08/04 03:50:41;;;;;;;11.07;3.78;;;;;;;23.05;59.76;101006.06;4995632;28;20034;-69
2022/08/04 03:53:22;;;;;;;15.07;3.67;;;;;;;23.17;59.73;101002.91;4995804;28;20034;-69
2022/08/04 03:56:05;;;;;;;8.52;3.35;;;;;;;23.23;59.29;101016.13;4995323;28;20033;-68
2022/08/04 03:58:47;;;;;;;10.63;3.53;;;;;;;23.36;59.40;101030.00;4978160;28;20388;-68
2022/08/04 04:01:31;;;;;;;14.52;3.80;;;;;;;23.37;58.86;101033.56;4995620;28;20034;-69
2022/08/04 04:04:11;;;;;;;11.02;3.97;;;;;;;23.27;59.00;101038.44;4995318;28;20101;-69
2022/08/04 04:07:15;;;;;;;16.05;4.40;;;;;;;23.27;58.91;101046.53;4977955;28;20036;-69
2022/08/04 04:10:08;;;;;;;10.70;3.80;;;;;;;23.29;58.83;101049.16;4995321;28;20545;-69
2022/08/04 04:12:33;;;;;;;12.13;3.90;;;;;;;23.27;59.58;101046.53;4995180;28;20388;-68
2022/08/04 04:15:19;;;;;;;10.70;3.67;;;;;;;23.20;59.43;101053.09;4995273;28;20476;-69
2022/08/04 04:18:02;;;;;;;13.82;4.03;;;;;;;23.11;60.19;101048.06;4978656;28;20551;-68
2022/08/04 04:20:36;;;;;;;12.73;4.10;;;;;;;23.09;60.07;101060.75;4995140;28;20034;-68
2022/08/04 04:23:38;;;;;;;9.73;4.00;;;;;;;23.12;60.10;101050.69;4994940;28;20507;-68
2022/08/04 04:26:31;;;;;;;14.07;4.68;;;;;;;23.16;60.32;101063.13;4975529;28;20114;-69
2022/08/04 04:29:18;;;;;;;10.02;3.90;;;;;;;23.18;59.83;101058.56;4975767;28;20441;-69
2022/08/04 04:32:04;;;;;;;12.98;4.43;;;;;;;23.25;59.91;101053.78;4975346;28;20023;-69
2022/08/04 04:34:33;;;;;;;9.77;4.35;;;;;;;23.20;60.95;101061.19;4975267;28;20030;-68
2022/08/04 04:37:20;;;;;;;14.70;4.72;;;;;;;23.26;60.77;101068.19;4975318;28;20031;-68
2022/08/04 04:40:02;;;;;;;14.88;4.57;;;;;;;23.23;60.93;101070.03;4957892;28;20035;-69
2022/08/04 04:42:27;;;;;;;11.88;4.38;;;;;;;23.33;60.54;101065.16;4975211;28;20118;-69
2022/08/04 04:45:12;;;;;;;11.90;4.60;;;;;;;23.37;60.12;101060.53;4975163;28;20102;-69
2022/08/04 04:47:40;;;;;;;13.73;5.15;;;;;;;23.37;60.89;101061.41;4975048;28;20030;-69
2022/08/04 04:50:14;;;;;;;17.63;5.15;;;;;;;23.45;61.20;101062.00;4974873;28;20023;-68
2022/08/04 04:52:48;;;;;;;12.23;4.60;;;;;;;23.58;60.56;101057.00;4975048;28;20034;-68
2022/08/04 04:55:25;;;;;;;11.25;4.43;;;;;;;23.61;60.83;101062.28;4974993;28;20033;-69
2022/08/04 04:57:53;;;;;;;11.50;4.40;;;;;;;23.65;61.05;101063.94;4974778;28;20035;-68
2022/08/04 05:00:19;;;;;;;12.63;4.95;;;;;;;23.63;60.86;101062.22;4974792;28;20029;-69
2022/08/04 05:03:22;;;;;;;15.63;4.95;;;;;;;23.74;60.32;101065.41;4974988;28;20050;-68
2022/08/04 05:05:56;;;;;;;12.95;5.05;;;;;;;23.69;60.59;101070.97;4974482;28;20030;-68
2022/08/04 05:08:42;;;;;;;13.88;5.00;;;;;;;23.79;62.04;101067.91;4974702;28;20119;-69
2022/08/04 05:11:29;;;;;;;12.57;5.22;;;;;;;23.80;61.11;101070.53;4974178;28;20046;-69
2022/08/04 05:14:04;;;;;;;13.38;5.28;;;;;;;23.76;61.21;101079.69;4974688;28;20447;-69
2022/08/04 05:16:43;;;;;;;18.52;5.47;;;;;;;23.76;60.91;101077.00;4974753;28;20125;-69
2022/08/04 05:19:24;;;;;;;14.73;5.00;;;;;;;23.82;61.43;101074.06;4974359;28;20031;-68
2022/08/04 05:22:16;;;;;;;11.10;4.95;;;;;;;23.87;61.11;101068.47;4974786;28;20035;-68
2022/08/04 05:24:45;;;;;;;14.40;4.70;;;;;;;23.86;61.84;101059.50;4974464;28;20053;-69
2022/08/04 05:27:16;;;;;;;12.73;5.18;;;;;;;23.92;60.77;101063.75;4974385;28;20070;-68
2022/08/04 05:29:59;;;;;;;13.23;4.97;;;;;;;23.97;61.10;101072.53;4974363;28;20090;-69
2022/08/04 05:32:36;;;;;;;15.20;5.60;;;;;;;23.83;62.21;101078.50;4974429;28;20019;-69
2022/08/04 05:35:08;;;;;;;13.63;5.00;;;;;;;23.87;61.82;101076.56;4974555;28;20129;-69
2022/08/04 05:37:39;;;;;;;11.65;5.30;;;;;;;23.91;62.00;101067.41;4974343;28;20030;-69
2022/08/04 05:40:06;;;;;;;11.88;5.53;;;;;;;24.03;62.21;101064.22;4974440;28;20038;-69
2022/08/04 05:42:36;;;;;;;13.88;5.47;;;;;;;24.14;61.32;101070.03;4974252;28;20026;-68
2022/08/04 05:45:02;;;;;;;13.77;5.32;;;;;;;24.27;60.90;101067.69;4974309;28;20027;-68
2022/08/04 05:47:30;;;;;;;13.48;5.25;;;;;;;24.30;61.72;101066.69;4974335;28;20113;-69
2022/08/04 05:49:56;;;;;;;16.15;5.00;;;;;;;24.38;62.05;101062.75;4974036;28;20040;-69
2022/08/04 05:52:23;;;;;;;12.27;4.72;;;;;;;24.42;61.97;101058.97;4975630;28;20110;-68
2022/08/04 05:54:51;;;;;;;16.27;4.82;;;;;;;24.36;62.16;101059.19;4980397;28;20030;-69
2022/08/04 05:57:18;;;;;;;12.38;4.93;;;;;;;24.41;62.96;101059.00;4980490;28;20065;-69
2022/08/04 05:59:47;;;;;;;12.65;4.82;;;;;;;24.52;61.55;101062.13;4980523;28;20031;-69
2022/08/04 06:02:17;;;;;;;11.25;5.10;;;;;;;24.60;62.08;101056.41;4980549;28;20457;-69
2022/08/04 06:04:45;;;;;;;16.15;5.25;;;;;;;24.66;61.16;101054.28;4980538;28;20023;-69
2022/08/04 06:07:13;;;;;;;15.63;5.80;;;;;;;24.64;60.52;101055.31;4980335;28;20395;-69
2022/08/04 06:09:39;;;;;;;9.20;5.20;;;;;;;24.63;61.05;101054.44;4980904;28;20066;-68
2022/08/04 06:12:12;;;;;;;13.40;5.72;;;;;;;24.64;60.72;101053.50;4980477;28;20051;-68
2022/08/04 06:14:42;;;;;;;18.40;5.70;;;;;;;24.61;61.22;101063.56;4980837;28;20102;-68
2022/08/04 06:17:10;;;;;;;16.85;6.05;;;;;;;24.80;61.24;101061.81;4980648;28;20031;-68
2022/08/04 06:19:40;;;;;;;13.35;5.32;;;;;;;24.85;61.26;101051.66;4980243;28;20065;-68
2022/08/04 06:22:09;;;;;;;12.32;5.72;;;;;;;24.89;61.22;101058.69;4980391;28;20469;-67
2022/08/04 06:24:38;;;;;;;12.55;5.53;;;;;;;25.04;62.45;101058.91;5003963;28;20080;-68
2022/08/04 06:27:05;;;;;;;11.38;5.22;;;;;;;25.13;62.69;101058.50;4985690;28;20377;-67
2022/08/04 06:29:40;;;;;;;16.92;6.10;;;;;;;25.30;61.04;101058.59;5019479;28;20018;-68
2022/08/04 06:32:23;;;;;;;17.83;5.95;;;;;;;25.43;60.97;101061.59;5019252;28;20041;-68
2022/08/04 06:34:57;;;;;;;11.95;5.90;;;;;;;25.71;58.74;101067.44;5019383;28;20057;-68
2022/08/04 06:37:25;;;;;;;16.52;6.32;;;;;;;25.89;57.74;101064.81;5019643;28;20030;-68
2022/08/04 06:39:52;;;;;;;14.05;5.80;;;;;;;26.21;55.40;101065.94;5019520;28;20042;-68
2022/08/04 06:42:20;;;;;;;18.13;7.30;;;;;;;26.38;56.68;101074.06;5019321;28;20033;-68
2022/08/04 06:44:49;;;;;;;22.42;8.35;;;;;;;26.50;57.16;101083.41;5019334;28;20105;-68
2022/08/04 06:47:18;;;;;;;25.88;9.75;;;;;;;26.83;57.94;101080.78;5019231;28;20088;-68
2022/08/04 06:49:45;;;;;;;22.45;9.80;;;;;;;27.10;55.88;101074.84;5019360;28;20025;-68
2022/08/04 06:52:16;;;;;;;19.60;9.52;;;;;;;27.55;54.60;101079.56;5019456;28;20114;-68
2022/08/04 06:54:45;;;;;;;18.90;9.00;;;;;;;27.80;52.63;101079.09;5019519;28;20030;-68
2022/08/04 06:57:15;;;;;;;21.33;8.30;;;;;;;27.90;52.25;101085.72;5019341;28;20448;-69
2022/08/04 06:59:45;;;;;;;22.05;8.23;;;;;;;27.98;51.89;101077.13;5019178;28;20026;-68
2022/08/04 07:02:19;;;;;;;17.13;8.18;;;;;;;28.10;52.39;101078.28;5019148;28;20022;-68
2022/08/04 07:04:46;;;;;;;17.25;8.23;;;;;;;28.19;50.68;101078.59;5014099;28;20029;-68
2022/08/04 07:07:12;;;;;;;14.70;6.63;;;;;;;28.19;48.99;101075.88;5015756;28;20033;-69
2022/08/04 07:09:38;;;;;;;24.00;7.40;;;;;;;28.15;50.97;101076.16;4998085;28;20030;-69
2022/08/04 07:12:05;;;;;;;15.80;7.03;;;;;;;28.13;51.11;101075.34;5015873;28;20072;-68
2022/08/04 07:14:34;;;;;;;22.20;7.20;;;;;;;28.02;51.05;101078.72;5015868;28;20092;-68
2022/08/04 07:17:03;;;;;;;20.33;6.80;;;;;;;27.95;51.82;101085.47;5015737;28;20041;-68
2022/08/04 07:19:33;;;;;;;19.92;6.90;;;;;;;27.90;52.10;101083.00;5006646;28;20397;-68
2022/08/04 07:22:06;;;;;;;17.83;6.78;;;;;;;27.99;52.36;101091.59;4978705;28;20038;-68
2022/08/04 07:24:33;;;;;;;15.18;7.20;;;;;;;27.93;52.86;101087.41;4995621;28;20046;-68
2022/08/04 07:26:59;;;;;;;17.75;6.35;;;;;;;28.03;52.32;101088.59;4995924;28;20038;-68
2022/08/04 07:29:25;;;;;;;14.45;6.63;;;;;;;28.12;53.35;101079.91;4996008;28;20027;-68
2022/08/04 07:31:53;;;;;;;15.80;6.65;;;;;;;28.44;50.80;101086.19;4995992;28;20085;-68
2022/08/04 07:34:19;;;;;;;14.75;6.82;;;;;;;28.53;50.54;101094.78;4977980;28;20077;-68
2022/08/04 07:36:45;;;;;;;16.55;7.47;;;;;;;28.67;50.78;101106.53;4995782;28;20469;-68
2022/08/04 07:39:10;;;;;;;15.43;6.90;;;;;;;28.95;50.70;101103.03;4995730;28;20492;-68
2022/08/04 07:41:36;;;;;;;20.42;7.75;;;;;;;29.09;49.77;101102.19;4995711;28;20511;-68
2022/08/04 07:44:03;;;;;;;10.75;7.57;;;;;;;29.13;49.75;101097.44;4995591;28;20034;-68
2022/08/04 07:46:28;;;;;;;16.33;7.57;;;;;;;29.31;48.37;101096.25;4995425;28;20058;-68
2022/08/04 07:48:54;;;;;;;12.68;6.95;;;;;;;29.50;46.29;101090.50;4995596;28;20068;-68
2022/08/04 07:51:21;;;;;;;13.57;6.80;;;;;;;29.78;46.05;101103.22;4995257;28;20026;-68
2022/08/04 07:53:47;;;;;;;13.75;6.50;;;;;;;30.05;45.68;101105.09;4995682;28;20380;-68
2022/08/04 07:56:15;;;;;;;24.20;7.30;;;;;;;30.27;45.96;101096.38;4995427;28;20472;-69
2022/08/04 07:58:40;;;;;;;15.07;7.30;;;;;;;30.41;45.28;101096.34;4995599;28;20365;-68
2022/08/04 08:01:06;;;;;;;16.38;6.85;;;;;;;30.44;45.21;101087.91;4995222;28;20030;-68
2022/08/04 08:03:33;;;;;;;19.90;6.60;;;;;;;30.42;45.03;101095.34;4995197;28;20030;-69
2022/08/04 08:05:59;;;;;;;14.27;6.50;;;;;;;30.84;44.19;101101.56;4995126;28;20030;-68
2022/08/04 08:08:24;;;;;;;17.70;5.90;;;;;;;31.18;44.15;101100.06;4995234;28;20041;-69
2022/08/04 08:10:50;;;;;;;14.73;6.28;;;;;;;31.41;43.56;101099.28;4995128;28;20046;-69
2022/08/04 08:13:17;;;;;;;18.63;6.75;;;;;;;31.44;43.01;101116.44;4995072;28;20027;-68
2022/08/04 08:15:45;;;;;;;13.13;5.90;;;;;;;31.74;43.09;101113.34;4994863;28;20483;-68
2022/08/04 08:18:10;;;;;;;16.42;6.32;;;;;;;31.85;42.20;101107.94;4977424;28;20089;-69
2022/08/04 08:20:36;;;;;;;12.63;6.70;;;;;;;31.95;42.35;101116.34;4994690;28;20027;-68
2022/08/04 08:23:02;;;;;;;15.60;6.35;;;;;;;32.19;42.02;101109.03;4994948;28;20034;-69
2022/08/04 08:25:31;;;;;;;15.88;6.43;;;;;;;32.25;42.20;101116.78;4994443;28;20516;-69
2022/08/04 08:27:56;;;;;;;16.67;6.15;;;;;;;32.49;40.65;101115.91;4994824;28;20022;-68
2022/08/04 08:30:23;;;;;;;17.75;6.40;;;;;;;32.37;41.38;101118.56;4994693;28;20033;-68
2022/08/04 08:32:49;;;;;;;12.07;6.25;;;;;;;32.19;41.67;101119.97;4994679;28;20057;-68
2022/08/04 08:35:14;;;;;;;10.32;5.30;;;;;;;32.54;41.50;101113.69;4994362;28;20018;-68
2022/08/04 08:37:46;;;;;;;16.70;5.38;;;;;;;32.56;40.68;101115.31;4994515;28;20088;-68
2022/08/04 08:40:28;;;;;;;12.73;5.30;;;;;;;32.91;41.12;101119.91;4994506;28;20026;-69
2022/08/04 08:43:18;;;;;;;12.68;5.28;;;;;;;33.10;40.97;101122.06;4993283;28;20036;-69
2022/08/04 08:46:17;;;;;;;13.95;4.90;;;;;;;32.91;41.14;101130.84;4994472;28;20097;-68
2022/08/04 08:49:00;;;;;;;10.55;5.00;;;;;;;32.78;40.71;101138.28;4994284;28;20037;-68
2022/08/04 08:51:40;;;;;;;10.13;4.95;;;;;;;32.80;40.63;101145.38;4994373;28;20042;-68
2022/08/04 08:54:29;;;;;;;14.38;5.20;;;;;;;32.72;40.18;101139.63;4994405;28;20018;-68
2022/08/04 08:57:28;;;;;;;11.98;4.63;;;;;;;32.82;39.83;101132.44;4994343;28;20026;-68
2022/08/04 09:00:27;;;;;;;11.70;3.92;;;;;;;32.66;39.83;101140.97;4979805;28;20034;-68
2022/08/04 09:03:14;;;;;;;11.25;3.70;;;;;;;32.49;39.95;101146.00;4979600;28;20080;-67
2022/08/04 09:06:02;;;;;;;8.18;3.35;;;;;;;32.59;39.18;101147.94;4994103;28;20048;-68
2022/08/04 09:08:49;;;;;;;7.07;3.15;;;;;;;33.05;38.11;101140.72;4966060;28;20082;-68
2022/08/04 09:11:29;;;;;;;9.38;3.20;;;;;;;32.92;38.50;101153.66;4994168;28;20472;-69
2022/08/04 09:14:10;;;;;;;13.73;3.20;;;;;;;33.31;37.21;101160.56;4976713;28;20022;-68
2022/08/04 09:16:53;;;;;;;11.80;3.45;;;;;;;33.58;37.28;101155.66;4994360;28;20038;-68
2022/08/04 09:19:32;;;;;;;11.07;3.20;;;;;;;33.39;36.21;101155.34;4993826;28;20089;-69
2022/08/04 09:22:08;;;;;;;10.43;3.75;;;;;;;33.07;37.18;101156.06;4992891;28;20035;-68
2022/08/04 09:24:37;;;;;;;15.07;3.20;;;;;;;33.04;37.26;101156.28;4976432;28;20053;-68
2022/08/04 09:27:34;;;;;;;10.30;3.08;;;;;;;33.20;37.03;101155.97;4993187;28;20037;-68
2022/08/04 09:30:02;;;;;;;11.05;3.38;;;;;;;33.23;36.88;101155.69;4968413;28;20035;-68
2022/08/04 09:32:37;;;;;;;9.38;3.08;;;;;;;33.05;37.66;101154.44;4976102;28;20391;-68
2022/08/04 09:35:36;;;;;;;12.40;2.90;;;;;;;33.15;38.01;101158.19;4993581;28;20018;-68
2022/08/04 09:38:38;;;;;;;13.60;3.40;;;;;;;32.96;38.46;101171.59;4993533;28;20121;-68
2022/08/04 09:41:38;;;;;;;9.00;2.90;;;;;;;32.80;37.36;101180.06;4993591;28;20026;-68
2022/08/04 09:44:35;;;;;;;7.35;3.00;;;;;;;32.59;37.53;101174.38;4986115;28;20551;-68
2022/08/04 09:47:16;;;;;;;13.13;3.30;;;;;;;32.08;37.78;101180.94;4981814;28;20113;-68
2022/08/04 09:49:51;;;;;;;10.70;2.80;;;;;;;31.77;38.45;101189.59;4993555;28;20034;-69
2022/08/04 09:52:45;;;;;;;11.50;2.90;;;;;;;31.57;39.47;101193.78;4993360;28;20050;-68
2022/08/04 09:55:16;;;;;;;11.90;2.75;;;;;;;31.36;39.26;101202.53;4993641;28;20579;-68
2022/08/04 09:57:45;;;;;;;11.80;2.67;;;;;;;31.12;39.16;101209.69;4993959;28;20117;-68
2022/08/04 10:00:15;;;;;;;6.35;2.33;;;;;;;31.11;39.76;101206.06;4993747;28;20069;-68
2022/08/04 10:02:52;;;;;;;14.77;2.67;;;;;;;31.13;39.75;101200.50;4993661;28;20034;-68
2022/08/04 10:05:24;;;;;;;6.95;2.50;;;;;;;30.98;39.75;101218.84;4993428;28;20031;-68
2022/08/04 10:08:02;;;;;;;6.65;2.70;;;;;;;30.84;40.80;101214.34;4993415;28;20081;-68
2022/08/04 10:11:03;;;;;;;13.13;2.88;;;;;;;30.64;40.86;101229.28;4993482;28;20034;-68
2022/08/04 10:13:49;;;;;;;14.40;3.15;;;;;;;30.47;40.83;101226.81;4993411;28;20026;-68
2022/08/04 10:16:45;;;;;;;9.20;2.67;;;;;;;30.17;41.99;101227.00;4993656;28;20097;-68
2022/08/04 10:19:33;;;;;;;11.15;2.80;;;;;;;29.93;42.34;101205.75;4993474;28;20081;-68
2022/08/04 10:22:17;;;;;;;15.27;2.75;;;;;;;29.67;43.75;101225.63;4993395;28;20045;-68
2022/08/04 10:25:07;;;;;;;10.60;2.40;;;;;;;29.44;44.26;101265.16;4993155;28;20048;-68
2022/08/04 10:27:42;;;;;;;11.07;2.95;;;;;;;29.12;46.44;101308.84;4993333;28;20022;-68
2022/08/04 10:30:12;;;;;;;11.48;2.80;;;;;;;28.67;47.74;101313.25;4993488;28;20023;-68
2022/08/04 10:32:51;;;;;;;13.32;3.45;;;;;;;28.71;50.81;101316.66;4993221;28;20089;-65
2022/08/04 10:35:20;;;;;;;13.98;3.60;;;;;;;28.27;52.22;101297.41;4993163;28;20070;-68
2022/08/04 10:37:45;;;;;;;8.13;2.65;;;;;;;27.97;53.66;101279.13;4993091;28;20056;-69
2022/08/04 10:40:39;;;;;;;13.05;3.15;;;;;;;27.72;54.84;101290.44;4996404;28;20077;-71
2022/08/04 10:43:12;;;;;;;12.93;3.58;;;;;;;27.60;57.47;101278.38;4979462;28;20058;-71
2022/08/04 10:45:45;;;;;;;12.48;3.38;;;;;;;27.38;58.30;101262.34;4996898;28;20034;-72
2022/08/04 10:48:25;;;;;;;9.80;3.30;;;;;;;27.28;58.37;101246.63;4996728;28;20034;-73
2022/08/04 10:51:10;;;;;;;11.98;3.25;;;;;;;27.14;59.83;101231.06;4996689;28;20416;-73
2022/08/04 10:53:37;;;;;;;12.88;3.50;;;;;;;26.92;62.19;101212.28;4979260;28;20543;-73
2022/08/04 10:56:31;;;;;;;8.57;3.47;;;;;;;26.92;60.20;101204.16;4996827;28;20019;-73
2022/08/04 10:59:03;;;;;;;12.35;3.38;;;;;;;26.87;62.79;101206.22;4992510;28;20042;-74
2022/08/04 11:01:40;;;;;;;11.38;3.20;;;;;;;27.11;61.96;101215.84;4996714;28;20030;-74
2022/08/04 11:04:24;;;;;;;13.07;3.40;;;;;;;27.45;62.95;101219.47;4996444;28;20037;-74
2022/08/04 11:06:51;;;;;;;8.02;3.17;;;;;;;27.69;63.51;101212.69;4996514;28;20022;-74
2022/08/04 11:09:18;;;;;;;10.13;3.88;;;;;;;27.99;62.43;101222.00;4996524;28;20388;-73
2022/08/04 11:11:52;;;;;;;10.77;3.20;;;;;;;28.14;62.95;101242.88;4996331;28;20026;-73
2022/08/04 11:14:27;;;;;;;10.65;3.20;;;;;;;28.07;60.37;101250.47;4996408;28;20030;-73
2022/08/04 11:17:18;;;;;;;11.10;3.30;;;;;;;27.90;58.96;101250.53;4996347;28;20058;-73
2022/08/04 11:19:46;;;;;;;8.27;3.28;;;;;;;27.81;60.44;101238.34;4996514;28;20023;-73
2022/08/04 11:22:43;;;;;;;9.25;3.10;;;;;;;27.75;59.48;101222.41;4996206;28;20098;-72
2022/08/04 11:25:31;;;;;;;6.53;3.10;;;;;;;27.59;58.42;101224.16;4995233;28;20411;-72
2022/08/04 11:28:17;;;;;;;6.95;3.20;;;;;;;27.37;60.15;101228.03;4996048;28;20027;-72
2022/08/04 11:30:52;;;;;;;8.15;3.17;;;;;;;27.40;60.37;101224.25;4996130;28;20062;-72
2022/08/04 11:33:27;;;;;;;8.15;3.20;;;;;;;27.52;61.24;101214.59;4996041;28;20075;-72
2022/08/04 11:36:30;;;;;;;5.78;3.10;;;;;;;27.82;60.23;101217.50;4995812;28;20026;-71
2022/08/04 11:39:07;;;;;;;10.18;3.13;;;;;;;28.05;60.25;101219.81;4995971;28;20491;-71
2022/08/04 11:41:57;;;;;;;6.40;3.10;;;;;;;28.51;60.89;101225.34;4995921;28;20036;-71
2022/08/04 11:44:30;;;;;;;6.18;3.13;;;;;;;28.98;57.42;101231.69;4996082;28;20086;-71
2022/08/04 11:47:07;;;;;;;7.97;2.88;;;;;;;29.45;52.46;101223.34;4978308;28;20045;-71
2022/08/04 11:49:40;;;;;;;7.15;2.65;;;;;;;29.70;51.36;101220.00;4995646;28;20388;-71
2022/08/04 11:52:08;;;;;;;8.75;2.72;;;;;;;29.70;49.66;101217.25;4995090;28;20074;-71
2022/08/04 11:54:36;;;;;;;7.65;2.70;;;;;;;30.11;49.49;101230.97;4995665;28;20022;-71
2022/08/04 11:57:02;;;;;;;8.88;2.70;;;;;;;30.49;48.75;101224.84;4995611;28;20035;-71
2022/08/04 11:59:32;;;;;;;12.27;3.22;;;;;;;30.32;47.52;101222.38;4995482;28;20069;-71